Time;durP1;ratioP1;P1;durP2;ratioP2;P2;SDS_P1;SDS_P2;PMS_P1;PMS_P2;Temp;Humidity;BMP_temperature;BMP_pressure;BME280_temperature;BME280_humidity;BME280_pressure;Samples;Min_cycle;Max_cycle;Signal;HPM_P1;HPM_P2
2023/04/10 00:00:07;;;;;;;30.83;25.05;;;8.20;99.90;;;;;;4874706;29;20045;-77
2023/04/10 00:02:35;;;;;;;28.67;23.98;;;8.10;99.90;;;;;;4876629;29;20494;-74
2023/04/10 00:05:02;;;;;;;32.25;25.63;;;8.10;99.90;;;;;;4875802;29;20443;-76
2023/04/10 00:07:30;;;;;;;32.70;24.48;;;8.00;99.90;;;;;;4876381;29;20056;-77
2023/04/10 00:09:57;;;;;;;32.35;25.50;;;8.00;99.90;;;;;;4883755;29;20041;-76
2023/04/10 00:12:25;;;;;;;33.38;25.35;;;7.90;99.90;;;;;;4878284;29;20049;-78
2023/04/10 00:14:52;;;;;;;32.65;24.73;;;7.80;99.90;;;;;;4876477;29;20053;-75
2023/04/10 00:17:21;;;;;;;32.30;24.48;;;7.80;99.90;;;;;;4874700;29;20045;-74
2023/04/10 00:19:49;;;;;;;31.23;23.10;;;7.80;99.90;;;;;;4874723;29;20044;-76
2023/04/10 00:22:16;;;;;;;30.40;22.90;;;7.90;99.90;;;;;;4858376;29;20041;-78
2023/04/10 00:24:43;;;;;;;31.83;23.08;;;7.90;99.90;;;;;;4873642;29;20097;-75
2023/04/10 00:27:11;;;;;;;29.27;21.95;;;8.00;99.90;;;;;;4876538;29;20056;-77
2023/04/10 00:29:39;;;;;;;28.88;22.38;;;8.00;99.90;;;;;;4862170;29;20045;-75
2023/04/10 00:32:06;;;;;;;27.42;21.95;;;8.10;99.90;;;;;;4860771;29;20037;-75
2023/04/10 00:34:35;;;;;;;27.42;21.67;;;8.10;99.90;;;;;;4861239;29;20045;-77
2023/04/10 00:37:03;;;;;;;28.60;21.33;;;8.20;99.90;;;;;;4860039;29;20581;-78
2023/04/10 00:39:30;;;;;;;23.67;19.55;;;8.10;99.90;;;;;;4860007;29;20041;-75
2023/04/10 00:41:58;;;;;;;28.50;21.73;;;8.20;99.90;;;;;;4860940;29;20143;-75
2023/04/10 00:44:26;;;;;;;28.73;20.40;;;8.20;99.90;;;;;;4861516;29;20045;-75
2023/04/10 00:46:53;;;;;;;26.13;21.33;;;8.20;99.90;;;;;;4877762;29;20041;-76
2023/04/10 00:49:20;;;;;;;27.50;21.67;;;8.20;99.90;;;;;;4877525;29;20045;-76
2023/04/10 00:51:49;;;;;;;27.10;20.15;;;8.20;99.90;;;;;;4878055;29;20051;-77
2023/04/10 00:54:17;;;;;;;29.23;21.30;;;8.30;99.90;;;;;;4859989;29;20064;-76
2023/04/10 00:56:46;;;;;;;26.85;21.73;;;8.20;99.90;;;;;;4877932;29;20053;-76
2023/04/10 00:59:13;;;;;;;29.02;22.27;;;8.30;99.90;;;;;;4879170;29;20594;-75
2023/04/10 01:01:41;;;;;;;28.27;21.35;;;8.30;99.90;;;;;;4867097;29;20053;-76
2023/04/10 01:04:08;;;;;;;29.15;22.48;;;8.20;99.90;;;;;;4878602;29;20401;-78
2023/04/10 01:06:50;;;;;;;26.45;21.27;;;8.20;99.90;;;;;;4858837;29;20060;-77
2023/04/10 01:09:29;;;;;;;27.20;20.48;;;8.20;99.90;;;;;;4877293;29;20634;-75
2023/04/10 01:12:04;;;;;;;26.05;19.75;;;8.20;99.90;;;;;;4860611;29;20053;-76
2023/04/10 01:14:42;;;;;;;28.13;20.88;;;8.30;99.90;;;;;;4876778;29;20498;-76
2023/04/10 01:17:16;;;;;;;25.25;20.08;;;8.30;99.90;;;;;;4859926;29;20109;-76
2023/04/10 01:20:02;;;;;;;26.48;20.48;;;8.30;99.90;;;;;;4874549;29;20144;-77
2023/04/10 01:22:41;;;;;;;25.65;19.60;;;8.30;99.90;;;;;;4879206;29;20041;-76
2023/04/10 01:25:30;;;;;;;26.67;21.35;;;8.20;99.90;;;;;;4860323;29;20060;-76
2023/04/10 01:28:11;;;;;;;24.85;19.58;;;8.10;99.90;;;;;;4876923;29;20045;-77
2023/04/10 01:30:41;;;;;;;29.05;21.38;;;8.00;99.90;;;;;;4876950;29;20108;-75
2023/04/10 01:33:12;;;;;;;26.38;20.75;;;8.00;99.90;;;;;;4859876;29;20061;-77
2023/04/10 01:35:44;;;;;;;28.17;20.98;;;7.90;99.90;;;;;;4860012;29;20067;-75
2023/04/10 01:38:12;;;;;;;26.65;21.00;;;7.80;99.90;;;;;;4875786;29;20049;-76
2023/04/10 01:40:48;;;;;;;27.95;21.90;;;7.80;99.90;;;;;;4860110;29;20409;-77
2023/04/10 01:43:19;;;;;;;29.42;22.05;;;7.70;99.90;;;;;;4859873;29;20132;-77
2023/04/10 01:45:52;;;;;;;27.55;21.35;;;7.70;99.90;;;;;;4859138;29;20045;-78
2023/04/10 01:48:20;;;;;;;27.30;21.77;;;7.70;99.90;;;;;;4870504;29;20060;-76
2023/04/10 01:50:48;;;;;;;27.98;21.17;;;7.70;99.90;;;;;;4880719;29;20457;-75
2023/04/10 01:53:16;;;;;;;26.83;21.42;;;7.60;99.90;;;;;;4875070;29;20131;-78
2023/04/10 01:55:44;;;;;;;29.08;21.15;;;7.60;99.90;;;;;;4860109;29;20143;-75
2023/04/10 01:58:14;;;;;;;27.90;20.67;;;7.60;99.90;;;;;;4862400;29;20089;-77
2023/04/10 02:00:43;;;;;;;27.55;20.85;;;7.60;99.90;;;;;;4859915;29;20427;-78
2023/04/10 02:03:13;;;;;;;26.88;20.50;;;7.60;99.90;;;;;;4859501;29;20068;-77
2023/04/10 02:05:51;;;;;;;24.80;19.63;;;7.60;99.90;;;;;;4876790;29;20641;-77
2023/04/10 02:08:24;;;;;;;26.90;21.30;;;7.70;99.90;;;;;;4859534;29;20109;-76
2023/04/10 02:10:58;;;;;;;27.25;21.20;;;7.60;99.90;;;;;;4859800;29;20120;-77
2023/04/10 02:13:28;;;;;;;26.35;20.77;;;7.70;99.90;;;;;;4860632;29;20060;-76
2023/04/10 02:15:57;;;;;;;25.92;20.33;;;7.70;99.90;;;;;;4876903;29;20048;-77
2023/04/10 02:18:27;;;;;;;29.38;21.48;;;7.70;99.90;;;;;;4878158;23;20049;-73
2023/04/10 02:20:55;;;;;;;26.38;19.40;;;7.80;99.90;;;;;;4890264;29;20482;-76
2023/04/10 02:23:23;;;;;;;24.45;19.35;;;7.90;99.90;;;;;;4888811;29;20079;-74
2023/04/10 02:25:50;;;;;;;25.55;19.95;;;7.90;99.90;;;;;;4891968;29;20048;-74
2023/04/10 02:28:18;;;;;;;26.88;20.85;;;7.90;99.90;;;;;;4894043;29;20052;-74
2023/04/10 02:30:45;;;;;;;27.48;20.02;;;8.00;99.90;;;;;;4901319;29;20064;-73
2023/04/10 02:33:13;;;;;;;27.20;20.17;;;8.00;99.90;;;;;;4918511;29;20021;-74
2023/04/10 02:35:42;;;;;;;26.08;20.33;;;8.00;99.90;;;;;;4918084;29;20090;-77
2023/04/10 02:38:09;;;;;;;26.20;19.98;;;8.00;99.90;;;;;;4893540;29;20549;-72
2023/04/10 02:40:38;;;;;;;25.38;19.63;;;8.00;99.90;;;;;;4894766;29;20060;-73
2023/04/10 02:43:17;;;;;;;26.02;19.52;;;8.00;99.90;;;;;;4893233;29;20044;-74
2023/04/10 02:45:46;;;;;;;25.08;19.50;;;7.90;99.90;;;;;;4892631;29;20044;-73
2023/04/10 02:48:20;;;;;;;26.40;19.42;;;7.90;99.90;;;;;;4892195;29;20037;-72
2023/04/10 02:50:57;;;;;;;24.95;19.80;;;7.90;99.90;;;;;;4894092;29;20052;-74
2023/04/10 02:53:26;;;;;;;25.38;19.98;;;7.90;99.90;;;;;;4906510;29;20107;-73
2023/04/10 02:55:57;;;;;;;27.02;20.13;;;7.90;99.90;;;;;;4897318;29;20488;-74
2023/04/10 02:58:24;;;;;;;25.10;20.02;;;7.90;99.90;;;;;;4893306;29;20133;-74
2023/04/10 03:00:56;;;;;;;26.15;19.55;;;7.90;99.90;;;;;;4901590;29;20048;-74
2023/04/10 03:03:40;;;;;;;25.67;20.33;;;8.00;99.90;;;;;;4892842;29;20531;-73
2023/04/10 03:06:09;;;;;;;25.80;20.73;;;7.90;99.90;;;;;;4892085;29;20067;-73
2023/04/10 03:08:38;;;;;;;25.92;19.98;;;7.90;99.90;;;;;;4893522;29;20072;-73
2023/04/10 03:11:08;;;;;;;24.55;19.25;;;7.90;99.90;;;;;;4892557;29;20064;-74
2023/04/10 03:13:35;;;;;;;26.00;19.45;;;7.90;99.90;;;;;;4892841;29;20497;-74
2023/04/10 03:16:03;;;;;;;24.50;19.38;;;7.80;99.90;;;;;;4892480;29;20040;-74
2023/04/10 03:18:33;;;;;;;24.00;19.38;;;7.80;99.90;;;;;;4893077;29;20076;-73
2023/04/10 03:21:01;;;;;;;27.35;20.10;;;7.80;99.90;;;;;;4893386;29;20040;-74
2023/04/10 03:23:30;;;;;;;27.92;21.27;;;7.80;99.90;;;;;;4893344;29;20116;-74
2023/04/10 03:25:58;;;;;;;25.50;20.45;;;7.80;99.90;;;;;;4892064;29;20528;-74
2023/04/10 03:28:28;;;;;;;26.50;21.02;;;7.90;99.90;;;;;;4893270;29;20044;-74
2023/04/10 03:30:56;;;;;;;25.48;19.40;;;7.90;99.90;;;;;;4894513;29;20075;-74
2023/04/10 03:33:24;;;;;;;25.88;20.30;;;8.00;99.90;;;;;;4891660;29;20040;-76
2023/04/10 03:35:52;;;;;;;26.35;20.92;;;8.00;99.90;;;;;;4889249;29;20800;-74
2023/04/10 03:38:20;;;;;;;26.13;20.65;;;8.00;99.90;;;;;;4896855;29;20109;-74
2023/04/10 03:40:48;;;;;;;26.38;20.27;;;8.00;99.90;;;;;;4892268;29;20128;-73
2023/04/10 03:43:19;;;;;;;26.73;20.45;;;8.00;99.90;;;;;;4891443;29;20508;-73
2023/04/10 03:45:47;;;;;;;29.05;21.58;;;8.00;99.90;;;;;;4895343;29;20041;-74
2023/04/10 03:48:16;;;;;;;30.83;22.30;;;8.10;99.90;;;;;;4908687;29;20065;-75
2023/04/10 03:50:46;;;;;;;28.92;22.25;;;8.10;99.90;;;;;;4910975;29;20051;-73
2023/04/10 03:53:14;;;;;;;32.08;23.25;;;8.10;99.90;;;;;;4903379;29;20083;-74
2023/04/10 03:55:41;;;;;;;33.88;23.70;;;8.10;99.90;;;;;;4891302;29;20044;-73
2023/04/10 03:58:12;;;;;;;36.63;24.95;;;8.10;99.90;;;;;;4891857;29;20045;-74
2023/04/10 04:00:40;;;;;;;34.67;24.75;;;8.10;99.90;;;;;;4895879;29;20517;-74
2023/04/10 04:03:18;;;;;;;34.63;25.08;;;8.10;99.90;;;;;;4896305;29;20055;-74
2023/04/10 04:06:15;;;;;;;37.22;25.33;;;8.10;99.90;;;;;;4886863;29;20072;-74
2023/04/10 04:09:14;;;;;;;35.63;26.90;;;8.00;99.90;;;;;;4907395;29;20081;-73
2023/04/10 04:12:08;;;;;;;38.67;28.65;;;7.90;99.90;;;;;;4901859;29;20064;-74
2023/04/10 04:14:48;;;;;;;38.20;28.95;;;7.90;99.90;;;;;;4913496;29;20083;-74
2023/04/10 04:17:42;;;;;;;41.42;29.50;;;7.90;99.90;;;;;;4916674;29;20052;-74
2023/04/10 04:20:35;;;;;;;38.67;28.88;;;7.90;99.90;;;;;;4912557;29;20127;-74
2023/04/10 04:23:29;;;;;;;42.10;29.33;;;7.90;99.90;;;;;;4887914;29;20100;-74
2023/04/10 04:26:19;;;;;;;38.13;26.75;;;7.90;99.90;;;;;;4910466;29;20072;-74
2023/04/10 04:29:09;;;;;;;41.85;28.33;;;7.80;99.90;;;;;;4914422;29;20524;-74
2023/04/10 04:32:01;;;;;;;39.50;26.50;;;7.90;99.90;;;;;;4927215;29;20108;-75
2023/04/10 04:34:38;;;;;;;40.33;27.63;;;7.90;99.90;;;;;;4936140;29;20068;-75
2023/04/10 04:37:32;;;;;;;38.45;27.55;;;7.80;99.90;;;;;;4913106;29;20628;-76
2023/04/10 04:40:21;;;;;;;38.90;26.98;;;7.80;99.90;;;;;;4919203;29;20850;-74
2023/04/10 04:43:06;;;;;;;41.15;28.63;;;7.80;99.90;;;;;;4917272;29;20047;-74
2023/04/10 04:45:52;;;;;;;41.60;29.95;;;7.80;99.90;;;;;;4916492;29;20563;-73
2023/04/10 04:48:53;;;;;;;42.15;30.10;;;7.70;99.90;;;;;;4904681;29;20509;-76
2023/04/10 04:51:47;;;;;;;39.72;29.77;;;7.70;99.90;;;;;;4898871;29;20130;-76
2023/04/10 04:54:30;;;;;;;48.58;29.60;;;7.60;99.90;;;;;;4900081;29;20036;-73
2023/04/10 04:57:13;;;;;;;41.03;29.35;;;7.60;99.90;;;;;;4914650;29;20127;-74
2023/04/10 04:59:57;;;;;;;42.13;29.02;;;7.60;99.90;;;;;;4899283;29;20044;-73
2023/04/10 05:02:43;;;;;;;44.17;30.75;;;7.60;99.90;;;;;;4916498;29;20063;-74
2023/04/10 05:05:30;;;;;;;40.92;29.75;;;7.60;99.90;;;;;;4890843;29;20149;-73
2023/04/10 05:08:06;;;;;;;44.20;32.92;;;7.70;99.90;;;;;;4915100;29;20082;-76
2023/04/10 05:10:52;;;;;;;43.00;31.73;;;7.70;99.90;;;;;;4915458;29;20063;-74
2023/04/10 05:13:54;;;;;;;45.50;32.42;;;7.70;99.90;;;;;;4821137;29;20039;-73
2023/04/10 05:16:43;;;;;;;51.88;37.25;;;7.60;99.90;;;;;;4911216;29;20131;-75
2023/04/10 05:19:33;;;;;;;51.78;37.60;;;7.60;99.90;;;;;;4905493;29;20052;-74
2023/04/10 05:22:23;;;;;;;53.42;36.47;;;7.60;99.90;;;;;;4914166;29;20096;-74
2023/04/10 05:25:19;;;;;;;46.28;33.45;;;7.60;99.90;;;;;;4912630;29;20388;-74
2023/04/10 05:28:02;;;;;;;50.33;35.40;;;7.50;99.90;;;;;;4898962;29;20179;-74
2023/04/10 05:30:48;;;;;;;45.47;34.38;;;7.50;99.90;;;;;;4916640;29;20059;-74
2023/04/10 05:33:34;;;;;;;48.25;35.78;;;7.50;99.90;;;;;;4918610;29;20051;-74
2023/04/10 05:36:14;;;;;;;51.30;35.58;;;7.50;99.90;;;;;;4910157;29;20048;-73
2023/04/10 05:39:01;;;;;;;51.90;37.83;;;7.50;99.90;;;;;;4915982;29;20063;-73
2023/04/10 05:41:58;;;;;;;52.72;37.58;;;7.50;99.90;;;;;;4908005;29;20445;-76
2023/04/10 05:44:46;;;;;;;53.92;37.90;;;7.50;99.90;;;;;;4914365;29;20052;-75
2023/04/10 05:47:36;;;;;;;61.90;38.72;;;7.40;99.90;;;;;;4916593;29;20052;-75
2023/04/10 05:50:21;;;;;;;48.08;37.95;;;7.40;99.90;;;;;;4898586;29;20135;-74
2023/04/10 05:52:59;;;;;;;55.22;41.88;;;7.30;99.90;;;;;;4898073;29;20126;-74
2023/04/10 05:55:50;;;;;;;;;;;7.20;99.90;;;;;;4897553;29;20564;-77
2023/04/10 05:58:43;;;;;;;60.08;45.05;;;7.20;99.90;;;;;;4899354;29;19927;-74
2023/04/10 06:01:17;;;;;;;59.88;44.38;;;7.20;99.90;;;;;;4915150;29;20071;-74
2023/04/10 06:03:50;;;;;;;65.60;48.50;;;7.20;99.90;;;;;;4897986;29;20060;-73
2023/04/10 06:06:18;;;;;;;63.63;47.83;;;7.20;99.90;;;;;;4897311;29;20051;-74
2023/04/10 06:08:45;;;;;;;64.18;44.00;;;7.20;99.90;;;;;;4898279;29;20584;-74
2023/04/10 06:11:14;;;;;;;60.35;41.17;;;7.20;99.90;;;;;;4915418;29;20504;-74
2023/04/10 06:13:47;;;;;;;62.05;43.42;;;7.30;99.90;;;;;;4896978;29;20044;-76
2023/04/10 06:16:15;;;;;;;50.78;36.72;;;7.30;99.90;;;;;;4914577;29;20055;-74
2023/04/10 06:18:44;;;;;;;51.85;36.25;;;7.40;99.90;;;;;;4896573;29;20044;-73
2023/04/10 06:21:13;;;;;;;57.05;38.05;;;7.50;99.90;;;;;;4897732;29;20080;-74
2023/04/10 06:23:40;;;;;;;48.95;34.45;;;7.50;99.90;;;;;;4914595;29;20083;-76
2023/04/10 06:26:08;;;;;;;53.60;36.30;;;7.50;99.90;;;;;;4913747;29;20104;-75
2023/04/10 06:28:37;;;;;;;53.70;37.35;;;7.50;99.90;;;;;;4896443;29;20052;-76
2023/04/10 06:31:07;;;;;;;52.50;38.00;;;7.50;99.90;;;;;;4913910;29;20150;-74
2023/04/10 06:33:37;;;;;;;51.45;35.42;;;7.60;99.90;;;;;;4896523;29;20051;-75
2023/04/10 06:36:08;;;;;;;48.95;36.20;;;7.70;99.90;;;;;;4895761;29;20075;-75
2023/04/10 06:38:42;;;;;;;53.17;36.58;;;7.80;99.90;;;;;;4897275;29;20064;-74
2023/04/10 06:41:10;;;;;;;51.53;33.42;;;7.80;99.90;;;;;;4904709;29;20127;-74
2023/04/10 06:43:39;;;;;;;45.30;33.40;;;7.80;99.90;;;;;;4914694;29;20075;-74
2023/04/10 06:46:07;;;;;;;53.17;36.85;;;7.90;99.90;;;;;;4913080;29;20064;-75
2023/04/10 06:48:35;;;;;;;56.92;39.67;;;7.90;99.90;;;;;;4914037;29;20223;-74
2023/04/10 06:51:02;;;;;;;55.78;39.08;;;7.90;99.90;;;;;;4913471;29;20048;-75
2023/04/10 06:53:30;;;;;;;54.45;39.08;;;7.90;99.90;;;;;;4915368;29;20044;-75
2023/04/10 06:55:59;;;;;;;53.20;37.55;;;8.00;99.90;;;;;;4919260;29;20052;-75
2023/04/10 06:58:26;;;;;;;51.78;36.90;;;8.00;99.90;;;;;;4924967;29;20048;-74
2023/04/10 07:00:55;;;;;;;55.80;36.78;;;8.10;99.90;;;;;;4914626;29;20051;-74
2023/04/10 07:03:22;;;;;;;56.33;38.15;;;8.20;99.90;;;;;;4912914;29;20047;-75
2023/04/10 07:05:50;;;;;;;56.50;37.75;;;8.50;99.90;;;;;;4913676;29;20048;-74
2023/04/10 07:08:17;;;;;;;52.42;36.67;;;8.70;99.90;;;;;;4913154;29;20040;-74
2023/04/10 07:10:45;;;;;;;50.45;36.50;;;8.80;99.90;;;;;;4913753;29;20058;-74
2023/04/10 07:13:12;;;;;;;53.25;37.97;;;8.80;99.90;;;;;;4914000;29;20052;-76
2023/04/10 07:15:40;;;;;;;48.33;35.55;;;8.90;99.90;;;;;;4912472;29;20044;-74
2023/04/10 07:18:08;;;;;;;49.95;35.28;;;9.10;99.90;;;;;;4913603;29;20052;-75
2023/04/10 07:20:37;;;;;;;47.60;34.78;;;9.20;99.90;;;;;;4903154;29;20054;-74
2023/04/10 07:23:04;;;;;;;48.85;36.78;;;9.10;99.90;;;;;;4913847;29;20102;-74
2023/04/10 07:25:32;;;;;;;52.53;38.65;;;9.10;99.90;;;;;;4913621;29;20130;-77
2023/04/10 07:27:59;;;;;;;49.63;36.55;;;9.10;99.90;;;;;;4915898;29;20394;-75
2023/04/10 07:30:26;;;;;;;46.47;34.33;;;9.00;99.90;;;;;;4915973;29;20116;-75
2023/04/10 07:32:54;;;;;;;46.15;33.47;;;9.00;99.90;;;;;;4914553;29;20044;-75
2023/04/10 07:35:23;;;;;;;51.83;36.22;;;9.00;99.90;;;;;;4914013;29;20052;-74
2023/04/10 07:37:51;;;;;;;45.90;34.55;;;9.20;99.90;;;;;;4912666;29;20048;-74
2023/04/10 07:40:19;;;;;;;48.95;36.05;;;9.20;99.90;;;;;;4896113;29;20048;-74
2023/04/10 07:42:46;;;;;;;52.33;36.10;;;9.20;99.90;;;;;;4913522;29;20052;-74
2023/04/10 07:45:14;;;;;;;51.85;36.45;;;9.20;99.90;;;;;;4913491;29;20372;-74
2023/04/10 07:47:41;;;;;;;51.38;36.60;;;9.10;99.90;;;;;;4914437;29;20456;-75
2023/04/10 07:50:10;;;;;;;52.05;35.65;;;9.00;99.90;;;;;;4914147;29;20096;-74
2023/04/10 07:52:38;;;;;;;49.67;34.88;;;8.80;99.90;;;;;;4896226;29;20497;-76
2023/04/10 07:55:06;;;;;;;54.40;37.90;;;8.80;99.90;;;;;;4913429;29;20055;-74
2023/04/10 07:57:34;;;;;;;50.35;36.78;;;9.00;99.90;;;;;;4910926;29;20151;-75
2023/04/10 08:00:01;;;;;;;45.95;33.78;;;9.10;99.90;;;;;;4913719;29;20044;-77
2023/04/10 08:02:40;;;;;;;49.20;33.60;;;9.10;99.90;;;;;;4914235;29;20377;-73
2023/04/10 08:05:08;;;;;;;45.45;33.00;;;9.20;99.90;;;;;;4913779;29;20052;-73
2023/04/10 08:07:38;;;;;;;46.88;32.53;;;9.20;99.90;;;;;;4913503;29;20056;-74
2023/04/10 08:10:06;;;;;;;43.78;31.67;;;9.20;99.90;;;;;;4913835;29;20055;-74
2023/04/10 08:12:34;;;;;;;43.13;31.27;;;9.20;99.90;;;;;;4913819;29;20051;-73
2023/04/10 08:15:01;;;;;;;44.20;31.98;;;9.10;99.90;;;;;;4929526;29;20059;-76
2023/04/10 08:17:36;;;;;;;39.80;29.45;;;9.10;99.90;;;;;;4922140;29;20044;-74
2023/04/10 08:20:05;;;;;;;42.60;30.80;;;9.00;99.90;;;;;;4872494;29;20124;-75
2023/04/10 08:22:32;;;;;;;41.92;30.77;;;9.10;99.90;;;;;;4870852;29;20098;-76
2023/04/10 08:25:01;;;;;;;41.47;30.45;;;9.10;99.90;;;;;;4865580;29;20091;-76
2023/04/10 08:27:29;;;;;;;42.42;31.33;;;9.10;99.90;;;;;;4864483;29;20157;-78
2023/04/10 08:29:56;;;;;;;41.28;30.75;;;9.10;99.90;;;;;;4868955;29;20076;-76
2023/04/10 08:32:26;;;;;;;44.22;32.78;;;9.10;99.90;;;;;;4866273;29;20045;-79
2023/04/10 08:34:53;;;;;;;46.85;33.75;;;9.20;99.90;;;;;;4865365;29;20053;-76
2023/04/10 08:37:21;;;;;;;47.55;34.50;;;9.30;99.90;;;;;;4865493;29;20133;-75
2023/04/10 08:39:48;;;;;;;43.45;31.73;;;9.40;99.90;;;;;;4864863;29;20041;-78
2023/04/10 08:42:17;;;;;;;46.20;32.90;;;9.50;99.90;;;;;;4866054;29;20118;-76
2023/04/10 08:44:45;;;;;;;43.17;31.55;;;9.60;99.90;;;;;;4867356;29;20045;-77
2023/04/10 08:47:14;;;;;;;42.95;31.88;;;9.90;99.90;;;;;;4869460;29;20049;-77
2023/04/10 08:49:50;;;;;;;41.78;31.48;;;10.00;99.90;;;;;;4868564;29;20057;-76
2023/04/10 08:52:22;;;;;;;44.33;30.75;;;10.10;99.90;;;;;;4873087;29;20051;-76
2023/04/10 08:54:54;;;;;;;39.63;29.83;;;10.10;99.90;;;;;;4869517;29;20125;-75
2023/04/10 08:57:23;;;;;;;42.30;30.63;;;9.70;99.90;;;;;;4867842;29;20124;-74
2023/04/10 08:59:51;;;;;;;41.92;31.38;;;9.50;99.90;;;;;;4868078;29;20045;-76
2023/04/10 09:02:19;;;;;;;44.88;31.80;;;9.70;99.90;;;;;;4867421;29;20073;-76
2023/04/10 09:04:49;;;;;;;51.85;33.45;;;9.90;99.90;;;;;;4869845;29;20056;-76
2023/04/10 09:07:17;;;;;;;45.35;32.85;;;10.10;99.90;;;;;;4868858;29;20048;-78
2023/04/10 09:09:44;;;;;;;49.38;35.70;;;10.30;99.90;;;;;;4870285;29;20049;-76
2023/04/10 09:12:14;;;;;;;45.80;32.92;;;10.50;99.90;;;;;;4869241;29;20053;-75
2023/04/10 09:14:43;;;;;;;42.97;33.08;;;10.50;99.90;;;;;;4869046;29;20033;-77
2023/04/10 09:17:16;;;;;;;45.60;32.90;;;10.50;99.90;;;;;;4866867;29;20040;-77
2023/04/10 09:19:44;;;;;;;45.05;33.13;;;10.40;99.90;;;;;;4866947;29;20098;-76
2023/04/10 09:22:12;;;;;;;42.63;32.60;;;10.40;99.90;;;;;;4867015;29;20042;-78
2023/04/10 09:24:41;;;;;;;46.55;34.53;;;10.40;99.90;;;;;;4867443;29;20038;-78
2023/04/10 09:27:09;;;;;;;50.25;36.08;;;10.50;99.90;;;;;;4867517;29;20051;-75
2023/04/10 09:29:47;;;;;;;48.70;35.92;;;10.60;99.90;;;;;;4868669;29;20128;-75
2023/04/10 09:32:34;;;;;;;51.50;38.42;;;10.80;99.90;;;;;;4867773;29;20055;-75
2023/04/10 09:35:03;;;;;;;52.47;37.20;;;10.70;99.90;;;;;;4867213;29;20114;-75
2023/04/10 09:37:32;;;;;;;58.65;42.50;;;10.70;99.90;;;;;;4866374;29;20053;-76
2023/04/10 09:40:00;;;;;;;59.28;43.42;;;10.80;99.90;;;;;;4868772;29;20050;-77
2023/04/10 09:42:32;;;;;;;55.15;40.60;;;11.00;99.90;;;;;;4873624;29;20474;-76
2023/04/10 09:45:01;;;;;;;60.50;42.92;;;11.00;99.90;;;;;;4872624;29;20045;-78
2023/04/10 09:47:29;;;;;;;61.65;46.45;;;10.90;99.90;;;;;;4871220;29;20049;-78
2023/04/10 09:49:59;;;;;;;60.05;47.05;;;10.70;99.90;;;;;;4869779;29;20046;-76
2023/04/10 09:52:28;;;;;;;62.13;47.42;;;10.80;99.90;;;;;;4880304;29;20498;-77
2023/04/10 09:54:57;;;;;;;60.88;46.05;;;10.80;99.90;;;;;;4872025;29;20061;-76
2023/04/10 09:57:26;;;;;;;57.50;44.97;;;10.60;99.90;;;;;;4866337;29;20052;-76
2023/04/10 09:59:55;;;;;;;59.20;46.50;;;10.60;99.90;;;;;;4868886;29;20037;-78
2023/04/10 10:02:25;;;;;;;63.78;47.38;;;10.60;99.90;;;;;;4868342;29;20045;-78
2023/04/10 10:04:53;;;;;;;65.20;47.03;;;10.30;99.90;;;;;;4867187;29;20057;-77
2023/04/10 10:07:22;;;;;;;67.93;49.97;;;10.30;99.90;;;;;;4866795;29;20046;-78
2023/04/10 10:09:51;;;;;;;69.22;50.30;;;10.30;99.90;;;;;;4868259;29;20049;-79
2023/04/10 10:12:24;;;;;;;69.28;49.53;;;10.20;99.90;;;;;;4867119;29;20053;-79
2023/04/10 10:14:57;;;;;;;71.70;51.80;;;10.00;99.90;;;;;;4870478;29;20056;-77
2023/04/10 10:17:31;;;;;;;74.65;50.50;;;9.90;99.90;;;;;;4869727;29;20116;-78
2023/04/10 10:20:03;;;;;;;70.25;48.28;;;9.80;99.90;;;;;;4876144;29;20053;-76
2023/04/10 10:22:32;;;;;;;65.82;45.15;;;9.80;99.90;;;;;;4874040;29;20084;-79
2023/04/10 10:25:02;;;;;;;59.72;42.13;;;9.90;99.90;;;;;;4868294;29;20042;-78
2023/04/10 10:27:32;;;;;;;68.72;45.97;;;9.80;99.90;;;;;;4868873;29;20045;-77
2023/04/10 10:30:00;;;;;;;68.18;46.83;;;9.70;99.90;;;;;;4866342;29;20068;-77
2023/04/10 10:32:30;;;;;;;67.55;44.97;;;9.80;99.90;;;;;;4868484;29;20045;-76
2023/04/10 10:34:58;;;;;;;70.18;47.63;;;9.80;99.90;;;;;;4876312;29;20687;-79
2023/04/10 10:37:28;;;;;;;81.50;54.35;;;9.70;99.90;;;;;;4858763;29;20375;-78
2023/04/10 10:40:00;;;;;;;86.97;58.17;;;9.70;99.90;;;;;;4867954;29;20585;-77
2023/04/10 10:42:40;;;;;;;90.45;54.28;;;9.80;99.90;;;;;;4868143;29;20045;-77
2023/04/10 10:45:12;;;;;;;82.43;47.67;;;9.90;99.90;;;;;;4868033;29;20057;-78
2023/04/10 10:47:47;;;;;;;87.60;52.25;;;9.80;99.90;;;;;;4867407;29;20052;-78
2023/04/10 10:50:14;;;;;;;87.57;55.67;;;9.80;99.90;;;;;;4873285;29;20128;-79
2023/04/10 10:52:48;;;;;;;92.03;55.55;;;9.80;99.90;;;;;;4869620;29;20624;-77
2023/04/10 10:55:37;;;;;;;83.97;52.80;;;9.80;99.90;;;;;;4868644;29;20440;-76
2023/04/10 10:58:06;;;;;;;87.75;53.75;;;9.90;99.90;;;;;;4867661;29;20045;-78
2023/04/10 11:01:05;;;;;;;75.50;48.03;;;9.80;99.90;;;;;;4872089;29;20359;-76
2023/04/10 11:03:34;;;;;;;79.75;50.00;;;9.70;99.90;;;;;;4869922;29;20045;-78
2023/04/10 11:06:02;;;;;;;81.43;53.97;;;9.60;99.90;;;;;;4868894;29;20067;-76
2023/04/10 11:08:42;;;;;;;77.15;49.22;;;9.60;99.90;;;;;;4866726;29;20051;-76
2023/04/10 11:11:11;;;;;;;75.60;51.38;;;9.60;99.90;;;;;;4865889;29;20048;-76
2023/04/10 11:13:40;;;;;;;72.22;47.58;;;9.60;99.90;;;;;;4866084;29;21150;-78
2023/04/10 11:16:10;;;;;;;69.45;44.38;;;9.60;99.90;;;;;;4867036;29;20572;-78
2023/04/10 11:19:05;;;;;;;74.88;48.58;;;9.60;99.90;;;;;;4871773;29;20036;-77
2023/04/10 11:21:33;;;;;;;69.53;48.47;;;9.50;99.90;;;;;;4872297;29;20049;-77
2023/04/10 11:24:04;;;;;;;69.80;45.80;;;9.60;99.90;;;;;;4869472;29;20052;-76
2023/04/10 11:26:40;;;;;;;74.50;46.95;;;9.60;99.90;;;;;;4866962;29;20052;-78
2023/04/10 11:29:34;;;;;;;76.03;50.28;;;9.60;99.90;;;;;;4865940;29;20140;-76
2023/04/10 11:32:03;;;;;;;73.82;46.63;;;9.70;99.90;;;;;;4864794;29;20045;-77
2023/04/10 11:34:32;;;;;;;71.03;43.63;;;9.70;99.90;;;;;;4865470;29;20144;-77
2023/04/10 11:37:02;;;;;;;72.85;46.85;;;9.70;99.90;;;;;;4865694;29;20065;-79
2023/04/10 11:39:31;;;;;;;72.07;47.60;;;9.70;99.90;;;;;;4865570;29;20060;-78
2023/04/10 11:41:58;;;;;;;58.80;41.05;;;9.70;99.90;;;;;;4865217;29;20057;-78
2023/04/10 11:44:31;;;;;;;63.38;40.95;;;9.80;99.90;;;;;;4865137;29;20072;-77
2023/04/10 11:46:58;;;;;;;63.15;40.65;;;9.90;99.90;;;;;;4865473;29;20410;-76
2023/04/10 11:49:33;;;;;;;58.63;40.55;;;9.90;99.90;;;;;;4864957;29;20045;-78
2023/04/10 11:52:00;;;;;;;61.53;40.90;;;9.80;99.90;;;;;;4866302;29;20637;-78
2023/04/10 11:54:29;;;;;;;59.95;42.78;;;9.80;99.90;;;;;;4865606;29;20053;-76
2023/04/10 11:56:59;;;;;;;56.35;40.03;;;9.90;99.90;;;;;;4849328;29;20049;-78
2023/04/10 11:59:27;;;;;;;50.35;37.15;;;10.10;99.90;;;;;;4866074;29;20076;-78
2023/04/10 12:02:02;;;;;;;53.08;35.63;;;10.40;99.90;;;;;;4866405;29;20037;-78
2023/04/10 12:04:30;;;;;;;;;;;10.30;99.90;;;;;;4863515;29;20051;-75
2023/04/10 12:06:59;;;;;;;56.85;38.42;;;10.50;99.90;;;;;;4847053;29;19928;-77
2023/04/10 12:09:27;;;;;;;53.05;38.03;;;10.70;99.90;;;;;;4863323;29;20041;-78
2023/04/10 12:11:58;;;;;;;57.15;37.25;;;10.70;99.90;;;;;;4863992;29;20045;-77
2023/04/10 12:14:30;;;;;;;51.40;35.78;;;10.60;99.90;;;;;;4863838;29;20057;-76
2023/04/10 12:16:58;;;;;;;60.75;42.10;;;10.50;99.90;;;;;;4865417;29;20045;-77
2023/04/10 12:19:26;;;;;;;55.25;38.92;;;10.70;99.90;;;;;;4821544;29;1292799;-77
2023/04/10 12:21:54;;;;;;;55.60;39.45;;;10.90;99.90;;;;;;4870579;29;20120;-78
2023/04/10 12:24:44;;;;;;;52.15;36.58;;;10.90;99.90;;;;;;4873712;29;20045;-78
2023/04/10 12:27:17;;;;;;;45.08;34.08;;;11.00;99.90;;;;;;4869751;29;20042;-76
2023/04/10 12:29:45;;;;;;;50.58;36.25;;;10.80;99.90;;;;;;4870227;29;20078;-77
2023/04/10 12:32:13;;;;;;;47.03;34.88;;;10.80;99.90;;;;;;4869364;29;20136;-75
2023/04/10 12:34:40;;;;;;;39.85;31.45;;;11.10;99.90;;;;;;4869399;29;20072;-76
2023/04/10 12:37:08;;;;;;;47.17;33.67;;;11.30;99.90;;;;;;4868700;29;20046;-77
2023/04/10 12:39:36;;;;;;;45.33;33.15;;;11.50;99.90;;;;;;4867762;29;20097;-78
2023/04/10 12:42:15;;;;;;;44.22;33.97;;;11.60;99.90;;;;;;4869539;29;20033;-77
2023/04/10 12:44:53;;;;;;;47.15;33.75;;;11.60;99.90;;;;;;4869700;29;20038;-78
2023/04/10 12:47:21;;;;;;;42.17;31.92;;;11.60;99.90;;;;;;4869632;29;20058;-76
2023/04/10 12:50:06;;;;;;;45.55;32.58;;;11.50;99.90;;;;;;4867800;29;20060;-77
2023/04/10 12:52:34;;;;;;;45.67;32.85;;;11.50;99.90;;;;;;4867611;29;20045;-77
2023/04/10 12:55:11;;;;;;;47.45;35.05;;;11.60;99.90;;;;;;4868956;29;20553;-77
2023/04/10 12:57:41;;;;;;;43.08;32.38;;;11.40;99.90;;;;;;4866972;29;20064;-76
2023/04/10 13:00:11;;;;;;;46.17;34.75;;;11.40;99.90;;;;;;4869376;29;20223;-77
2023/04/10 13:02:39;;;;;;;48.42;33.88;;;11.30;99.90;;;;;;4868049;29;20433;-76